sensor_id;sensor_type;location;lat;lon;timestamp;pressure;altitude;pressure_sealevel;temperature;humidity
60319;BME280;46163;52.306;5.634;2023-04-04T00:01:51;102966.72;;;15.50;51.97
60319;BME280;46163;52.306;5.634;2023-04-04T00:04:17;102957.34;;;15.46;51.72
60319;BME280;46163;52.306;5.634;2023-04-04T00:06:42;102958.22;;;15.46;51.86
60319;BME280;46163;52.306;5.634;2023-04-04T00:09:11;102948.66;;;15.44;51.65
60319;BME280;46163;52.306;5.634;2023-04-04T00:11:37;102935.41;;;15.42;51.75
60319;BME280;46163;52.306;5.634;2023-04-04T00:14:03;102932.94;;;15.41;51.83
60319;BME280;46163;52.306;5.634;2023-04-04T00:16:29;102931.91;;;15.42;51.72
60319;BME280;46163;52.306;5.634;2023-04-04T00:18:55;102924.88;;;15.41;51.57
60319;BME280;46163;52.306;5.634;2023-04-04T00:21:20;102935.59;;;15.41;51.71
60319;BME280;46163;52.306;5.634;2023-04-04T00:23:46;102927.94;;;15.38;51.73
60319;BME280;46163;52.306;5.634;2023-04-04T00:26:11;102932.28;;;15.39;51.64
60319;BME280;46163;52.306;5.634;2023-04-04T00:28:36;102938.66;;;15.38;51.57
60319;BME280;46163;52.306;5.634;2023-04-04T00:31:02;102921.44;;;15.32;51.65
60319;BME280;46163;52.306;5.634;2023-04-04T00:33:27;102930.97;;;15.35;51.52
60319;BME280;46163;52.306;5.634;2023-04-04T00:35:53;102932.81;;;15.34;51.65
60319;BME280;46163;52.306;5.634;2023-04-04T00:38:18;102933.81;;;15.33;51.58
60319;BME280;46163;52.306;5.634;2023-04-04T00:40:46;102933.00;;;15.33;51.38
60319;BME280;46163;52.306;5.634;2023-04-04T00:43:16;102928.84;;;15.30;51.42
60319;BME280;46163;52.306;5.634;2023-04-04T00:45:42;102928.66;;;15.32;51.71
60319;BME280;46163;52.306;5.634;2023-04-04T00:48:08;102919.94;;;15.30;51.56
60319;BME280;46163;52.306;5.634;2023-04-04T00:50:33;102919.28;;;15.27;51.37
60319;BME280;46163;52.306;5.634;2023-04-04T00:52:59;102917.97;;;15.23;51.43
60319;BME280;46163;52.306;5.634;2023-04-04T00:55:25;102924.00;;;15.25;51.39
60319;BME280;46163;52.306;5.634;2023-04-04T00:57:51;102923.34;;;15.23;51.58
60319;BME280;46163;52.306;5.634;2023-04-04T01:00:17;102912.31;;;15.18;51.55
60319;BME280;46163;52.306;5.634;2023-04-04T01:02:43;102916.31;;;15.22;51.50
60319;BME280;46163;52.306;5.634;2023-04-04T01:05:08;102916.31;;;15.22;51.37
60319;BME280;46163;52.306;5.634;2023-04-04T01:07:36;102912.81;;;15.22;51.48
60319;BME280;46163;52.306;5.634;2023-04-04T01:10:02;102911.13;;;15.21;51.41
60319;BME280;46163;52.306;5.634;2023-04-04T01:12:28;102909.44;;;15.20;51.42
60319;BME280;46163;52.306;5.634;2023-04-04T01:14:55;102913.16;;;15.19;51.30
60319;BME280;46163;52.306;5.634;2023-04-04T01:17:21;102918.69;;;15.17;51.34
60319;BME280;46163;52.306;5.634;2023-04-04T01:22:17;102927.75;;;15.16;51.31
60319;BME280;46163;52.306;5.634;2023-04-04T01:24:45;102922.59;;;15.15;51.41
60319;BME280;46163;52.306;5.634;2023-04-04T01:27:11;102919.06;;;15.14;51.37
60319;BME280;46163;52.306;5.634;2023-04-04T01:29:37;102914.91;;;15.12;51.40
60319;BME280;46163;52.306;5.634;2023-04-04T01:32:16;102911.56;;;15.10;51.53
60319;BME280;46163;52.306;5.634;2023-04-04T01:37:41;102934.84;;;15.09;51.21
60319;BME280;46163;52.306;5.634;2023-04-04T01:40:16;102923.28;;;15.09;51.31
60319;BME280;46163;52.306;5.634;2023-04-04T01:42:44;102914.59;;;15.07;51.15
60319;BME280;46163;52.306;5.634;2023-04-04T01:45:09;102912.09;;;15.05;51.26
60319;BME280;46163;52.306;5.634;2023-04-04T01:47:42;102912.09;;;15.05;51.40
60319;BME280;46163;52.306;5.634;2023-04-04T01:50:09;102922.84;;;15.05;51.20
60319;BME280;46163;52.306;5.634;2023-04-04T01:52:35;102917.47;;;15.05;51.16
60319;BME280;46163;52.306;5.634;2023-04-04T01:55:01;102908.78;;;15.03;51.24
60319;BME280;46163;52.306;5.634;2023-04-04T01:57:28;102907.91;;;15.03;51.46
60319;BME280;46163;52.306;5.634;2023-04-04T01:59:53;102916.13;;;15.01;51.25
60319;BME280;46163;52.306;5.634;2023-04-04T02:02:18;102912.81;;;14.99;51.17
60319;BME280;46163;52.306;5.634;2023-04-04T02:04:46;102923.53;;;14.99;51.31
60319;BME280;46163;52.306;5.634;2023-04-04T02:07:13;102924.94;;;14.95;51.23
60319;BME280;46163;52.306;5.634;2023-04-04T02:09:41;102931.13;;;14.95;51.25
60319;BME280;46163;52.306;5.634;2023-04-04T02:12:06;102926.78;;;14.94;51.26
60319;BME280;46163;52.306;5.634;2023-04-04T02:14:32;102930.28;;;14.95;51.30
60319;BME280;46163;52.306;5.634;2023-04-04T02:16:58;102927.75;;;14.93;51.31
60319;BME280;46163;52.306;5.634;2023-04-04T02:19:24;102919.25;;;14.90;51.21
60319;BME280;46163;52.306;5.634;2023-04-04T02:21:50;102917.59;;;14.89;51.20
60319;BME280;46163;52.306;5.634;2023-04-04T02:24:15;102927.94;;;14.92;51.36
60319;BME280;46163;52.306;5.634;2023-04-04T02:26:41;102927.47;;;14.88;51.19
60319;BME280;46163;52.306;5.634;2023-04-04T02:29:06;102925.25;;;14.92;51.15
60319;BME280;46163;52.306;5.634;2023-04-04T02:31:35;102914.72;;;14.90;51.14
60319;BME280;46163;52.306;5.634;2023-04-04T02:34:00;102920.91;;;14.91;51.01
60319;BME280;46163;52.306;5.634;2023-04-04T02:36:26;102915.91;;;14.88;51.14
60319;BME280;46163;52.306;5.634;2023-04-04T02:38:54;102915.75;;;14.89;51.13
60319;BME280;46163;52.306;5.634;2023-04-04T02:41:20;102916.09;;;14.86;51.01
60319;BME280;46163;52.306;5.634;2023-04-04T02:43:46;102903.69;;;14.85;51.26
60319;BME280;46163;52.306;5.634;2023-04-04T02:46:11;102900.34;;;14.83;51.29
60319;BME280;46163;52.306;5.634;2023-04-04T02:48:36;102904.06;;;14.82;51.01
60319;BME280;46163;52.306;5.634;2023-04-04T02:51:02;102891.03;;;14.79;51.19
60319;BME280;46163;52.306;5.634;2023-04-04T02:53:29;102894.53;;;14.80;51.18
60319;BME280;46163;52.306;5.634;2023-04-04T02:55:55;102899.06;;;14.79;51.29
60319;BME280;46163;52.306;5.634;2023-04-04T02:58:20;102899.06;;;14.79;51.08
60319;BME280;46163;52.306;5.634;2023-04-04T03:00:53;102898.41;;;14.77;51.01
60319;BME280;46163;52.306;5.634;2023-04-04T03:03:18;102893.88;;;14.78;51.20
60319;BME280;46163;52.306;5.634;2023-04-04T03:05:44;102896.72;;;14.76;51.12
60319;BME280;46163;52.306;5.634;2023-04-04T03:08:10;102888.69;;;14.76;51.17
60319;BME280;46163;52.306;5.634;2023-04-04T03:10:36;102890.53;;;14.76;50.93
60319;BME280;46163;52.306;5.634;2023-04-04T03:13:01;102889.69;;;14.75;50.95
60319;BME280;46163;52.306;5.634;2023-04-04T03:15:26;102890.72;;;14.74;51.18
60319;BME280;46163;52.306;5.634;2023-04-04T03:17:52;102889.03;;;14.73;51.00
60319;BME280;46163;52.306;5.634;2023-04-04T03:20:18;102883.03;;;14.71;51.15
60319;BME280;46163;52.306;5.634;2023-04-04T03:22:43;102884.88;;;14.70;51.08
60319;BME280;46163;52.306;5.634;2023-04-04T03:25:09;102892.94;;;14.70;51.11
60319;BME280;46163;52.306;5.634;2023-04-04T03:27:35;102872.84;;;14.66;51.07
60319;BME280;46163;52.306;5.634;2023-04-04T03:30:01;102886.53;;;14.72;51.15
60319;BME280;46163;52.306;5.634;2023-04-04T03:32:29;102887.38;;;14.72;50.88
60319;BME280;46163;52.306;5.634;2023-04-04T03:34:58;102882.19;;;14.70;51.17
60319;BME280;46163;52.306;5.634;2023-04-04T03:37:26;102884.06;;;14.70;51.12
60319;BME280;46163;52.306;5.634;2023-04-04T03:39:53;102885.91;;;14.69;50.78
60319;BME280;46163;52.306;5.634;2023-04-04T03:42:19;102883.22;;;14.69;51.04
60319;BME280;46163;52.306;5.634;2023-04-04T03:44:46;102879.53;;;14.70;50.79
60319;BME280;46163;52.306;5.634;2023-04-04T03:47:15;102876.47;;;14.74;50.85
60319;BME280;46163;52.306;5.634;2023-04-04T03:49:40;102878.97;;;14.75;50.96
60319;BME280;46163;52.306;5.634;2023-04-04T03:52:06;102878.63;;;14.78;51.09
60319;BME280;46163;52.306;5.634;2023-04-04T03:54:31;102883.44;;;14.83;50.94
60319;BME280;46163;52.306;5.634;2023-04-04T03:56:57;102873.84;;;14.88;50.73
60319;BME280;46163;52.306;5.634;2023-04-04T03:59:23;102874.81;;;14.95;50.36
60319;BME280;46163;52.306;5.634;2023-04-04T04:01:48;102868.91;;;15.00;50.45
60319;BME280;46163;52.306;5.634;2023-04-04T04:04:14;102873.81;;;15.11;50.41
60319;BME280;46163;52.306;5.634;2023-04-04T04:06:40;102866.06;;;15.16;50.18
60319;BME280;46163;52.306;5.634;2023-04-04T04:09:06;102874.69;;;15.26;49.92
60319;BME280;46163;52.306;5.634;2023-04-04T04:11:32;102881.47;;;15.37;50.07
60319;BME280;46163;52.306;5.634;2023-04-04T04:13:57;102875.03;;;15.46;49.70
60319;BME280;46163;52.306;5.634;2023-04-04T04:16:24;102875.94;;;15.53;49.47
60319;BME280;46163;52.306;5.634;2023-04-04T04:18:50;102883.75;;;15.63;49.25
60319;BME280;46163;52.306;5.634;2023-04-04T04:21:15;102882.00;;;15.70;49.32
60319;BME280;46163;52.306;5.634;2023-04-04T04:23:41;102878.19;;;15.79;48.95
60319;BME280;46163;52.306;5.634;2023-04-04T04:26:06;102879.94;;;15.87;48.92
60319;BME280;46163;52.306;5.634;2023-04-04T04:28:32;102879.84;;;15.95;48.75
60319;BME280;46163;52.306;5.634;2023-04-04T04:31:08;102880.97;;;16.01;48.39
60319;BME280;46163;52.306;5.634;2023-04-04T04:33:34;102871.88;;;16.02;48.32
60319;BME280;46163;52.306;5.634;2023-04-04T04:36:03;102878.81;;;16.11;48.26
60319;BME280;46163;52.306;5.634;2023-04-04T04:38:29;102875.41;;;16.17;48.19
60319;BME280;46163;52.306;5.634;2023-04-04T04:40:55;102889.06;;;16.22;48.17
60319;BME280;46163;52.306;5.634;2023-04-04T04:43:23;102879.34;;;16.21;47.78
60319;BME280;46163;52.306;5.634;2023-04-04T04:45:51;102880.66;;;16.25;47.71
60319;BME280;46163;52.306;5.634;2023-04-04T04:48:16;102883.25;;;16.33;47.65
60319;BME280;46163;52.306;5.634;2023-04-04T04:50:47;102882.22;;;16.34;47.90
60319;BME280;46163;52.306;5.634;2023-04-04T04:53:13;102882.84;;;16.36;47.64
60319;BME280;46163;52.306;5.634;2023-04-04T04:55:39;102876.25;;;16.39;47.59
60319;BME280;46163;52.306;5.634;2023-04-04T04:58:04;102881.91;;;16.44;47.53
60319;BME280;46163;52.306;5.634;2023-04-04T05:00:31;102882.34;;;16.48;47.41
60319;BME280;46163;52.306;5.634;2023-04-04T05:02:57;102888.56;;;16.48;47.30
60319;BME280;46163;52.306;5.634;2023-04-04T05:05:25;102879.09;;;16.52;47.38
60319;BME280;46163;52.306;5.634;2023-04-04T05:07:50;102879.53;;;16.56;47.24
60319;BME280;46163;52.306;5.634;2023-04-04T05:10:16;102868.78;;;16.56;46.99
60319;BME280;46163;52.306;5.634;2023-04-04T05:12:42;102879.41;;;16.64;47.16
60319;BME280;46163;52.306;5.634;2023-04-04T05:15:09;102881.72;;;16.67;47.39
60319;BME280;46163;52.306;5.634;2023-04-04T05:17:35;102890.28;;;16.71;47.34
60319;BME280;46163;52.306;5.634;2023-04-04T05:20:03;102889.06;;;16.73;47.18
60319;BME280;46163;52.306;5.634;2023-04-04T05:22:28;102894.03;;;16.76;47.28
60319;BME280;46163;52.306;5.634;2023-04-04T05:24:54;102887.28;;;16.80;47.23
60319;BME280;46163;52.306;5.634;2023-04-04T05:27:20;102891.88;;;16.86;46.99
60319;BME280;46163;52.306;5.634;2023-04-04T05:29:45;102889.84;;;16.88;47.19
60319;BME280;46163;52.306;5.634;2023-04-04T05:32:12;102891.50;;;16.89;46.70
60319;BME280;46163;52.306;5.634;2023-04-04T05:34:38;102890.47;;;16.90;47.19
60319;BME280;46163;52.306;5.634;2023-04-04T05:37:03;102896.09;;;16.95;47.14
60319;BME280;46163;52.306;5.634;2023-04-04T05:39:28;102898.22;;;17.00;47.00
60319;BME280;46163;52.306;5.634;2023-04-04T05:41:54;102882.06;;;17.00;47.08
60319;BME280;46163;52.306;5.634;2023-04-04T05:44:19;102879.13;;;16.95;47.22
60319;BME280;46163;52.306;5.634;2023-04-04T05:46:45;102898.84;;;17.02;47.30
60319;BME280;46163;52.306;5.634;2023-04-04T05:49:10;102894.94;;;17.05;47.24
60319;BME280;46163;52.306;5.634;2023-04-04T05:51:36;102885.22;;;17.04;47.37
60319;BME280;46163;52.306;5.634;2023-04-04T05:54:02;102886.69;;;17.06;47.52
60319;BME280;46163;52.306;5.634;2023-04-04T05:56:27;102872.97;;;17.01;47.56
60319;BME280;46163;52.306;5.634;2023-04-04T05:58:55;102891.66;;;17.09;47.28
60319;BME280;46163;52.306;5.634;2023-04-04T06:01:21;102886.09;;;17.11;47.45
60319;BME280;46163;52.306;5.634;2023-04-04T06:03:46;102875.31;;;17.11;47.29
60319;BME280;46163;52.306;5.634;2023-04-04T06:06:12;102886.28;;;17.09;47.29
60319;BME280;46163;52.306;5.634;2023-04-04T06:08:37;102880.06;;;17.09;47.26
60319;BME280;46163;52.306;5.634;2023-04-04T06:11:03;102888.13;;;17.09;47.25
60319;BME280;46163;52.306;5.634;2023-04-04T06:13:28;102872.75;;;17.03;47.22
60319;BME280;46163;52.306;5.634;2023-04-04T06:15:54;102887.31;;;17.08;47.20
60319;BME280;46163;52.306;5.634;2023-04-04T06:18:19;102897.03;;;17.09;47.14
60319;BME280;46163;52.306;5.634;2023-04-04T06:20:45;102897.03;;;17.09;47.09
60319;BME280;46163;52.306;5.634;2023-04-04T06:23:11;102893.72;;;17.07;47.13
60319;BME280;46163;52.306;5.634;2023-04-04T06:25:36;102896.41;;;17.07;46.96
60319;BME280;46163;52.306;5.634;2023-04-04T06:28:02;102901.16;;;17.05;47.01
60319;BME280;46163;52.306;5.634;2023-04-04T06:30:28;102899.50;;;17.04;46.98
60319;BME280;46163;52.306;5.634;2023-04-04T06:32:54;102906.53;;;17.05;46.98
60319;BME280;46163;52.306;5.634;2023-04-04T06:35:20;102904.06;;;17.04;46.93
60319;BME280;46163;52.306;5.634;2023-04-04T06:37:46;102906.75;;;17.04;46.89
60319;BME280;46163;52.306;5.634;2023-04-04T06:40:12;102910.06;;;17.06;47.45
60319;BME280;46163;52.306;5.634;2023-04-04T06:42:37;102915.25;;;17.07;47.58
60319;BME280;46163;52.306;5.634;2023-04-04T06:45:03;102902.19;;;17.04;47.80
60319;BME280;46163;52.306;5.634;2023-04-04T06:47:28;102905.91;;;17.03;48.00
60319;BME280;46163;52.306;5.634;2023-04-04T06:49:57;102910.06;;;17.06;48.01
60319;BME280;46163;52.306;5.634;2023-04-04T06:52:23;102916.28;;;17.06;47.79
60319;BME280;46163;52.306;5.634;2023-04-04T06:54:49;102910.06;;;17.06;47.69
60319;BME280;46163;52.306;5.634;2023-04-04T06:57:15;102901.53;;;17.02;47.77
60319;BME280;46163;52.306;5.634;2023-04-04T06:59:40;102896.59;;;17.06;47.84
60319;BME280;46163;52.306;5.634;2023-04-04T07:02:06;102903.72;;;17.13;48.01
60319;BME280;46163;52.306;5.634;2023-04-04T07:04:33;102899.16;;;17.14;47.89
60319;BME280;46163;52.306;5.634;2023-04-04T07:06:59;102902.50;;;17.16;47.64
60319;BME280;46163;52.306;5.634;2023-04-04T07:09:25;102893.84;;;17.20;47.71
60319;BME280;46163;52.306;5.634;2023-04-04T07:11:52;102891.78;;;17.22;48.00
60319;BME280;46163;52.306;5.634;2023-04-04T07:14:18;102901.13;;;17.27;47.92
60319;BME280;46163;52.306;5.634;2023-04-04T07:16:44;102897.59;;;17.26;47.94
60319;BME280;46163;52.306;5.634;2023-04-04T07:19:10;102900.75;;;17.30;48.08
60319;BME280;46163;52.306;5.634;2023-04-04T07:21:35;102903.03;;;17.33;47.91
60319;BME280;46163;52.306;5.634;2023-04-04T07:24:00;102909.06;;;17.35;48.13
60319;BME280;46163;52.306;5.634;2023-04-04T07:26:27;102899.50;;;17.32;48.18
60319;BME280;46163;52.306;5.634;2023-04-04T07:28:52;102906.81;;;17.38;48.03
60319;BME280;46163;52.306;5.634;2023-04-04T07:31:18;102908.06;;;17.42;47.98
60319;BME280;46163;52.306;5.634;2023-04-04T07:33:43;102914.75;;;17.46;47.56
60319;BME280;46163;52.306;5.634;2023-04-04T07:36:09;102911.03;;;17.47;47.10
60319;BME280;46163;52.306;5.634;2023-04-04T07:38:34;102912.69;;;17.48;47.54
60319;BME280;46163;52.306;5.634;2023-04-04T07:41:00;102905.44;;;17.49;47.16
60319;BME280;46163;52.306;5.634;2023-04-04T07:43:25;102910.63;;;17.50;46.97
60319;BME280;46163;52.306;5.634;2023-04-04T07:45:53;102912.28;;;17.51;47.03
60319;BME280;46163;52.306;5.634;2023-04-04T07:48:18;102909.03;;;17.56;47.21
60319;BME280;46163;52.306;5.634;2023-04-04T07:50:44;102906.31;;;17.56;47.14
60319;BME280;46163;52.306;5.634;2023-04-04T07:53:09;102904.06;;;17.60;47.46
60319;BME280;46163;52.306;5.634;2023-04-04T07:55:35;102899.09;;;17.63;47.64
60319;BME280;46163;52.306;5.634;2023-04-04T07:58:00;102899.75;;;17.65;47.58
60319;BME280;46163;52.306;5.634;2023-04-04T08:00:26;102907.63;;;17.67;47.49
60319;BME280;46163;52.306;5.634;2023-04-04T08:02:54;102901.88;;;17.70;47.72
60319;BME280;46163;52.306;5.634;2023-04-04T08:05:19;102897.06;;;17.65;47.34
60319;BME280;46163;52.306;5.634;2023-04-04T08:07:46;102894.41;;;17.72;47.47
60319;BME280;46163;52.306;5.634;2023-04-04T08:10:11;102890.22;;;17.69;47.42
60319;BME280;46163;52.306;5.634;2023-04-04T08:12:37;102898.81;;;17.73;47.58
60319;BME280;46163;52.306;5.634;2023-04-04T08:15:04;102894.25;;;17.73;47.30
60319;BME280;46163;52.306;5.634;2023-04-04T08:17:29;102893.00;;;17.76;46.98
60319;BME280;46163;52.306;5.634;2023-04-04T08:19:55;102889.28;;;17.77;47.08
60319;BME280;46163;52.306;5.634;2023-04-04T08:22:23;102887.22;;;17.79;46.92
60319;BME280;46163;52.306;5.634;2023-04-04T08:24:48;102882.66;;;17.79;46.86
60319;BME280;46163;52.306;5.634;2023-04-04T08:27:14;102884.53;;;17.79;46.60
60319;BME280;46163;52.306;5.634;2023-04-04T08:29:40;102877.09;;;17.81;46.54
60319;BME280;46163;52.306;5.634;2023-04-04T08:32:06;102884.53;;;17.79;46.59
60319;BME280;46163;52.306;5.634;2023-04-04T08:34:31;102872.28;;;17.76;46.44
60319;BME280;46163;52.306;5.634;2023-04-04T08:36:57;102873.94;;;17.77;46.61
60319;BME280;46163;52.306;5.634;2023-04-04T08:39:22;102876.03;;;17.75;46.38
60319;BME280;46163;52.306;5.634;2023-04-04T08:42:01;102877.25;;;17.73;46.66
60319;BME280;46163;52.306;5.634;2023-04-04T08:44:30;102871.03;;;17.72;46.70
60319;BME280;46163;52.306;5.634;2023-04-04T08:46:58;102876.16;;;17.67;46.41
60319;BME280;46163;52.306;5.634;2023-04-04T08:49:26;102873.25;;;17.69;46.67
60319;BME280;46163;52.306;5.634;2023-04-04T08:51:55;102876.16;;;17.67;46.74
60319;BME280;46163;52.306;5.634;2023-04-04T08:54:21;102870.97;;;17.66;46.66
60319;BME280;46163;52.306;5.634;2023-04-04T08:56:47;102878.63;;;17.69;46.43
60319;BME280;46163;52.306;5.634;2023-04-04T08:59:13;102874.94;;;17.70;46.82
60319;BME280;46163;52.306;5.634;2023-04-04T09:01:43;102871.38;;;17.69;47.11
60319;BME280;46163;52.306;5.634;2023-04-04T09:04:09;102866.28;;;17.74;46.96
60319;BME280;46163;52.306;5.634;2023-04-04T09:06:35;102868.34;;;17.79;46.89
60319;BME280;46163;52.306;5.634;2023-04-04T09:09:04;102865.66;;;17.79;46.84
60319;BME280;46163;52.306;5.634;2023-04-04T09:11:31;102865.66;;;17.79;46.91
60319;BME280;46163;52.306;5.634;2023-04-04T09:13:57;102873.38;;;17.82;46.92
60319;BME280;46163;52.306;5.634;2023-04-04T09:16:26;102877.50;;;17.85;46.63
60319;BME280;46163;52.306;5.634;2023-04-04T09:18:54;102880.00;;;17.86;46.96
60319;BME280;46163;52.306;5.634;2023-04-04T09:21:20;102883.31;;;17.88;46.32
60319;BME280;46163;52.306;5.634;2023-04-04T09:23:45;102873.22;;;17.90;46.55
60319;BME280;46163;52.306;5.634;2023-04-04T09:26:11;102853.47;;;17.83;46.33
60319;BME280;46163;52.306;5.634;2023-04-04T09:28:37;102865.75;;;17.92;45.96
60319;BME280;46163;52.306;5.634;2023-04-04T09:31:06;102869.47;;;17.98;45.85
60319;BME280;46163;52.306;5.634;2023-04-04T09:33:33;102860.41;;;17.99;45.70
60319;BME280;46163;52.306;5.634;2023-04-04T09:36:05;102854.59;;;18.02;45.38
60319;BME280;46163;52.306;5.634;2023-04-04T09:38:35;102850.88;;;18.03;44.99
60319;BME280;46163;52.306;5.634;2023-04-04T09:41:01;102841.72;;;17.97;45.45
60319;BME280;46163;52.306;5.634;2023-04-04T09:43:29;102852.13;;;18.07;45.35
60319;BME280;46163;52.306;5.634;2023-04-04T09:45:55;102852.31;;;18.05;45.79
60319;BME280;46163;52.306;5.634;2023-04-04T09:48:31;102863.75;;;18.07;46.18
60319;BME280;46163;52.306;5.634;2023-04-04T09:50:57;102848.59;;;18.06;45.93
60319;BME280;46163;52.306;5.634;2023-04-04T09:53:23;102852.75;;;18.09;46.30
60319;BME280;46163;52.306;5.634;2023-04-04T09:55:50;102852.56;;;18.11;46.18
60319;BME280;46163;52.306;5.634;2023-04-04T10:00:52;102839.69;;;18.13;46.21
60319;BME280;46163;52.306;5.634;2023-04-04T10:03:22;102851.09;;;18.15;46.01
60319;BME280;46163;52.306;5.634;2023-04-04T10:06:03;102851.94;;;18.15;45.54
60319;BME280;46163;52.306;5.634;2023-04-04T10:08:29;102850.09;;;18.16;45.53
60319;BME280;46163;52.306;5.634;2023-04-04T10:10:59;102852.13;;;18.14;45.86
60319;BME280;46163;52.306;5.634;2023-04-04T10:13:27;102845.09;;;18.13;46.09
60319;BME280;46163;52.306;5.634;2023-04-04T10:15:57;102846.38;;;18.17;46.14
60319;BME280;46163;52.306;5.634;2023-04-04T10:18:24;102842.63;;;18.18;46.26
60319;BME280;46163;52.306;5.634;2023-04-04T10:20:52;102834.09;;;18.14;46.36
60319;BME280;46163;52.306;5.634;2023-04-04T10:23:18;102836.84;;;18.21;46.87
60319;BME280;46163;52.306;5.634;2023-04-04T10:25:44;102833.94;;;18.22;46.68
60319;BME280;46163;52.306;5.634;2023-04-04T10:28:11;102820.44;;;18.22;46.80
60319;BME280;46163;52.306;5.634;2023-04-04T10:30:41;102829.19;;;18.24;46.56
60319;BME280;46163;52.306;5.634;2023-04-04T10:33:09;102823.59;;;18.26;46.21
60319;BME280;46163;52.306;5.634;2023-04-04T10:35:43;102816.53;;;18.25;47.17
60319;BME280;46163;52.306;5.634;2023-04-04T10:38:11;102819.66;;;18.28;47.06
60319;BME280;46163;52.306;5.634;2023-04-04T10:40:39;102820.28;;;18.30;46.97
60319;BME280;46163;52.306;5.634;2023-04-04T10:43:08;102815.28;;;18.27;46.93
60319;BME280;46163;52.306;5.634;2023-04-04T10:45:37;102818.41;;;18.31;46.44
60319;BME280;46163;52.306;5.634;2023-04-04T10:48:08;102819.03;;;18.33;46.53
60319;BME280;46163;52.306;5.634;2023-04-04T10:50:35;102811.97;;;18.32;46.45
60319;BME280;46163;52.306;5.634;2023-04-04T10:53:01;102807.22;;;18.34;46.52
60319;BME280;46163;52.306;5.634;2023-04-04T10:55:29;102812.41;;;18.35;46.22
60319;BME280;46163;52.306;5.634;2023-04-04T10:57:58;102804.13;;;18.37;46.19
60319;BME280;46163;52.306;5.634;2023-04-04T11:00:25;102805.78;;;18.38;46.02
60319;BME280;46163;52.306;5.634;2023-04-04T11:05:34;102801.00;;;18.40;46.74
60319;BME280;46163;52.306;5.634;2023-04-04T11:08:09;102797.91;;;18.43;46.83
60319;BME280;46163;52.306;5.634;2023-04-04T11:10:36;102796.88;;;18.44;47.10
60319;BME280;46163;52.306;5.634;2023-04-04T11:13:09;102800.19;;;18.46;46.60
60319;BME280;46163;52.306;5.634;2023-04-04T11:16:05;102798.75;;;18.44;45.23
60319;BME280;46163;52.306;5.634;2023-04-04T11:21:07;102792.53;;;18.43;41.52
60319;BME280;46163;52.306;5.634;2023-04-04T11:28:55;102774.69;;;18.42;42.48
60319;BME280;46163;52.306;5.634;2023-04-04T11:31:23;102784.63;;;18.48;42.73
60319;BME280;46163;52.306;5.634;2023-04-04T11:34:02;102774.66;;;18.49;42.99
60319;BME280;46163;52.306;5.634;2023-04-04T11:39:03;102776.75;;;18.53;42.59
60319;BME280;46163;52.306;5.634;2023-04-04T11:44:29;102774.25;;;18.58;43.27
60319;BME280;46163;52.306;5.634;2023-04-04T11:47:07;102776.78;;;18.60;43.48
60319;BME280;46163;52.306;5.634;2023-04-04T11:49:36;102774.69;;;18.62;43.77
60319;BME280;46163;52.306;5.634;2023-04-04T11:52:04;102773.44;;;18.64;43.82
60319;BME280;46163;52.306;5.634;2023-04-04T11:54:31;102763.69;;;18.63;43.94
60319;BME280;46163;52.306;5.634;2023-04-04T11:56:57;102764.13;;;18.67;43.35
60319;BME280;46163;52.306;5.634;2023-04-04T11:59:23;102757.72;;;18.68;43.50
60319;BME280;46163;52.306;5.634;2023-04-04T12:01:48;102754.81;;;18.70;43.66
60319;BME280;46163;52.306;5.634;2023-04-04T12:04:20;102754.59;;;18.71;43.83
60319;BME280;46163;52.306;5.634;2023-04-04T12:06:51;102757.09;;;18.73;44.03
60319;BME280;46163;52.306;5.634;2023-04-04T12:09:18;102747.13;;;18.73;43.94
60319;BME280;46163;52.306;5.634;2023-04-04T12:11:48;102739.03;;;18.73;43.43
60319;BME280;46163;52.306;5.634;2023-04-04T12:14:15;102745.47;;;18.72;43.81
60319;BME280;46163;52.306;5.634;2023-04-04T12:16:42;102738.19;;;18.73;44.21
60319;BME280;46163;52.306;5.634;2023-04-04T12:19:09;102731.56;;;18.75;44.06
60319;BME280;46163;52.306;5.634;2023-04-04T12:21:35;102725.13;;;18.76;44.49
60319;BME280;46163;52.306;5.634;2023-04-04T12:24:00;102730.50;;;18.76;44.88
60319;BME280;46163;52.306;5.634;2023-04-04T12:26:26;102727.63;;;18.78;44.79
60319;BME280;46163;52.306;5.634;2023-04-04T12:28:57;102720.38;;;18.78;44.45
60319;BME280;46163;52.306;5.634;2023-04-04T12:31:24;102715.81;;;18.79;44.61
60319;BME280;46163;52.306;5.634;2023-04-04T12:33:53;102723.69;;;18.80;44.88
60319;BME280;46163;52.306;5.634;2023-04-04T12:36:19;102725.53;;;18.80;44.71
60319;BME280;46163;52.306;5.634;2023-04-04T12:38:56;102718.72;;;18.77;44.92
60319;BME280;46163;52.306;5.634;2023-04-04T12:41:22;102723.91;;;18.79;44.59
60319;BME280;46163;52.306;5.634;2023-04-04T12:43:51;102717.44;;;18.80;44.61
60319;BME280;46163;52.306;5.634;2023-04-04T12:46:25;102713.94;;;18.79;44.42
60319;BME280;46163;52.306;5.634;2023-04-04T12:48:51;102712.66;;;18.82;44.42
60319;BME280;46163;52.306;5.634;2023-04-04T12:51:19;102700.84;;;18.83;44.34
60319;BME280;46163;52.306;5.634;2023-04-04T12:53:51;102707.06;;;18.83;44.02
60319;BME280;46163;52.306;5.634;2023-04-04T12:56:17;102687.78;;;18.73;43.91
60319;BME280;46163;52.306;5.634;2023-04-04T12:58:45;102691.69;;;18.84;43.72
60319;BME280;46163;52.306;5.634;2023-04-04T13:01:14;102690.66;;;18.85;43.89
60319;BME280;46163;52.306;5.634;2023-04-04T13:03:40;102693.16;;;18.86;43.78
60319;BME280;46163;52.306;5.634;2023-04-04T13:06:16;102689.66;;;18.86;44.18
60319;BME280;46163;52.306;5.634;2023-04-04T13:08:51;102678.44;;;18.89;44.28
60319;BME280;46163;52.306;5.634;2023-04-04T13:11:17;102684.66;;;18.89;43.28
60319;BME280;46163;52.306;5.634;2023-04-04T13:13:43;102684.44;;;18.91;44.30